sensor_id;sensor_type;location;lat;lon;timestamp;P1;durP1;ratioP1;P2;durP2;ratioP2
37905;SDS011;23739;51.448;6.674;2023-07-20T00:02:02;8.73;;;4.00;;
37905;SDS011;23739;51.448;6.674;2023-07-20T00:04:30;9.38;;;4.15;;
37905;SDS011;23739;51.448;6.674;2023-07-20T00:06:57;6.82;;;4.00;;
37905;SDS011;23739;51.448;6.674;2023-07-20T00:09:25;8.63;;;4.32;;
37905;SDS011;23739;51.448;6.674;2023-07-20T00:11:52;7.43;;;4.22;;
37905;SDS011;23739;51.448;6.674;2023-07-20T00:14:18;7.70;;;4.80;;
37905;SDS011;23739;51.448;6.674;2023-07-20T00:16:45;6.20;;;3.63;;
37905;SDS011;23739;51.448;6.674;2023-07-20T00:19:14;6.35;;;3.85;;
37905;SDS011;23739;51.448;6.674;2023-07-20T00:21:41;4.20;;;3.53;;
37905;SDS011;23739;51.448;6.674;2023-07-20T00:24:08;6.10;;;3.63;;
37905;SDS011;23739;51.448;6.674;2023-07-20T00:26:34;5.10;;;3.10;;
37905;SDS011;23739;51.448;6.674;2023-07-20T00:29:00;7.30;;;4.35;;
37905;SDS011;23739;51.448;6.674;2023-07-20T00:31:26;5.43;;;3.75;;
37905;SDS011;23739;51.448;6.674;2023-07-20T00:33:52;6.15;;;3.35;;
37905;SDS011;23739;51.448;6.674;2023-07-20T00:36:18;11.70;;;4.45;;
37905;SDS011;23739;51.448;6.674;2023-07-20T00:38:44;7.00;;;3.38;;
37905;SDS011;23739;51.448;6.674;2023-07-20T00:41:10;4.78;;;3.58;;
37905;SDS011;23739;51.448;6.674;2023-07-20T00:43:37;5.97;;;3.50;;
37905;SDS011;23739;51.448;6.674;2023-07-20T00:46:03;6.70;;;4.07;;
37905;SDS011;23739;51.448;6.674;2023-07-20T00:48:30;6.60;;;3.35;;
37905;SDS011;23739;51.448;6.674;2023-07-20T00:50:57;4.72;;;3.78;;
37905;SDS011;23739;51.448;6.674;2023-07-20T00:53:24;5.80;;;3.90;;
37905;SDS011;23739;51.448;6.674;2023-07-20T00:55:50;4.18;;;3.35;;
37905;SDS011;23739;51.448;6.674;2023-07-20T00:58:16;5.13;;;3.95;;
37905;SDS011;23739;51.448;6.674;2023-07-20T01:00:42;7.68;;;3.70;;
37905;SDS011;23739;51.448;6.674;2023-07-20T01:03:09;3.95;;;3.45;;
37905;SDS011;23739;51.448;6.674;2023-07-20T01:05:40;8.57;;;4.53;;
37905;SDS011;23739;51.448;6.674;2023-07-20T01:08:11;4.80;;;3.63;;
37905;SDS011;23739;51.448;6.674;2023-07-20T01:10:54;5.60;;;4.77;;
37905;SDS011;23739;51.448;6.674;2023-07-20T01:13:22;9.68;;;4.63;;
37905;SDS011;23739;51.448;6.674;2023-07-20T01:15:49;5.57;;;4.10;;
37905;SDS011;23739;51.448;6.674;2023-07-20T01:18:16;8.60;;;4.30;;
37905;SDS011;23739;51.448;6.674;2023-07-20T01:20:43;7.07;;;4.13;;
37905;SDS011;23739;51.448;6.674;2023-07-20T01:26:11;7.20;;;4.20;;
37905;SDS011;23739;51.448;6.674;2023-07-20T01:31:25;8.57;;;4.90;;
37905;SDS011;23739;51.448;6.674;2023-07-20T01:33:55;6.40;;;4.78;;
37905;SDS011;23739;51.448;6.674;2023-07-20T01:36:22;7.35;;;5.03;;
37905;SDS011;23739;51.448;6.674;2023-07-20T01:38:50;6.90;;;5.20;;
37905;SDS011;23739;51.448;6.674;2023-07-20T01:41:17;6.00;;;5.40;;
37905;SDS011;23739;51.448;6.674;2023-07-20T01:43:43;9.95;;;5.93;;
37905;SDS011;23739;51.448;6.674;2023-07-20T01:46:09;6.45;;;4.85;;
37905;SDS011;23739;51.448;6.674;2023-07-20T01:48:36;9.57;;;5.60;;
37905;SDS011;23739;51.448;6.674;2023-07-20T01:51:02;9.50;;;5.80;;
37905;SDS011;23739;51.448;6.674;2023-07-20T01:53:28;8.30;;;6.15;;
37905;SDS011;23739;51.448;6.674;2023-07-20T01:55:54;10.45;;;6.13;;
37905;SDS011;23739;51.448;6.674;2023-07-20T01:58:20;7.05;;;5.95;;
37905;SDS011;23739;51.448;6.674;2023-07-20T02:00:46;12.73;;;5.68;;
37905;SDS011;23739;51.448;6.674;2023-07-20T02:03:12;9.57;;;6.57;;
37905;SDS011;23739;51.448;6.674;2023-07-20T02:05:39;11.35;;;6.72;;
37905;SDS011;23739;51.448;6.674;2023-07-20T02:08:05;10.20;;;7.10;;
37905;SDS011;23739;51.448;6.674;2023-07-20T02:10:31;10.02;;;6.63;;
37905;SDS011;23739;51.448;6.674;2023-07-20T02:12:57;8.45;;;6.13;;
37905;SDS011;23739;51.448;6.674;2023-07-20T02:15:23;9.38;;;6.45;;
37905;SDS011;23739;51.448;6.674;2023-07-20T02:17:49;10.50;;;6.40;;
37905;SDS011;23739;51.448;6.674;2023-07-20T02:20:15;10.70;;;7.07;;
37905;SDS011;23739;51.448;6.674;2023-07-20T02:22:42;10.13;;;6.68;;
37905;SDS011;23739;51.448;6.674;2023-07-20T02:25:08;9.07;;;7.20;;
37905;SDS011;23739;51.448;6.674;2023-07-20T02:27:34;12.77;;;7.85;;
37905;SDS011;23739;51.448;6.674;2023-07-20T02:30:00;13.35;;;7.50;;
37905;SDS011;23739;51.448;6.674;2023-07-20T02:32:27;11.20;;;8.15;;
37905;SDS011;23739;51.448;6.674;2023-07-20T02:34:54;14.23;;;8.20;;
37905;SDS011;23739;51.448;6.674;2023-07-20T02:37:20;11.80;;;7.80;;
37905;SDS011;23739;51.448;6.674;2023-07-20T02:39:46;13.68;;;7.70;;
37905;SDS011;23739;51.448;6.674;2023-07-20T02:42:13;11.55;;;8.18;;
37905;SDS011;23739;51.448;6.674;2023-07-20T02:44:39;11.23;;;8.20;;
37905;SDS011;23739;51.448;6.674;2023-07-20T02:47:05;13.48;;;8.02;;
37905;SDS011;23739;51.448;6.674;2023-07-20T02:49:32;12.02;;;7.13;;
37905;SDS011;23739;51.448;6.674;2023-07-20T02:51:58;11.48;;;8.05;;
37905;SDS011;23739;51.448;6.674;2023-07-20T02:54:24;10.95;;;6.72;;
37905;SDS011;23739;51.448;6.674;2023-07-20T02:56:50;14.10;;;8.38;;
37905;SDS011;23739;51.448;6.674;2023-07-20T02:59:16;10.88;;;7.63;;
37905;SDS011;23739;51.448;6.674;2023-07-20T03:01:42;13.60;;;8.15;;
37905;SDS011;23739;51.448;6.674;2023-07-20T03:04:08;9.35;;;8.25;;
37905;SDS011;23739;51.448;6.674;2023-07-20T03:06:37;12.02;;;8.38;;
37905;SDS011;23739;51.448;6.674;2023-07-20T03:09:04;12.45;;;8.70;;
37905;SDS011;23739;51.448;6.674;2023-07-20T03:11:32;13.63;;;8.90;;
37905;SDS011;23739;51.448;6.674;2023-07-20T03:13:59;11.15;;;9.25;;
37905;SDS011;23739;51.448;6.674;2023-07-20T03:16:25;12.32;;;8.07;;
37905;SDS011;23739;51.448;6.674;2023-07-20T03:18:51;14.05;;;9.15;;
37905;SDS011;23739;51.448;6.674;2023-07-20T03:21:17;15.95;;;9.20;;
37905;SDS011;23739;51.448;6.674;2023-07-20T03:23:44;11.27;;;9.30;;
37905;SDS011;23739;51.448;6.674;2023-07-20T03:26:10;13.50;;;8.60;;
37905;SDS011;23739;51.448;6.674;2023-07-20T03:28:36;13.07;;;8.93;;
37905;SDS011;23739;51.448;6.674;2023-07-20T03:31:03;12.27;;;8.60;;
37905;SDS011;23739;51.448;6.674;2023-07-20T03:33:29;17.15;;;10.05;;
37905;SDS011;23739;51.448;6.674;2023-07-20T03:35:56;13.73;;;9.25;;
37905;SDS011;23739;51.448;6.674;2023-07-20T03:38:22;11.32;;;9.40;;
37905;SDS011;23739;51.448;6.674;2023-07-20T03:40:52;17.02;;;11.05;;
37905;SDS011;23739;51.448;6.674;2023-07-20T03:43:18;12.68;;;9.70;;
37905;SDS011;23739;51.448;6.674;2023-07-20T03:45:44;18.88;;;10.68;;
37905;SDS011;23739;51.448;6.674;2023-07-20T03:48:11;20.70;;;11.10;;
37905;SDS011;23739;51.448;6.674;2023-07-20T03:50:38;14.35;;;9.93;;
37905;SDS011;23739;51.448;6.674;2023-07-20T03:53:04;16.00;;;13.02;;
37905;SDS011;23739;51.448;6.674;2023-07-20T03:55:30;15.63;;;12.80;;
37905;SDS011;23739;51.448;6.674;2023-07-20T03:57:56;16.58;;;11.40;;
37905;SDS011;23739;51.448;6.674;2023-07-20T04:00:22;15.85;;;13.07;;
37905;SDS011;23739;51.448;6.674;2023-07-20T04:02:48;18.50;;;13.32;;
37905;SDS011;23739;51.448;6.674;2023-07-20T04:05:15;15.82;;;11.85;;
37905;SDS011;23739;51.448;6.674;2023-07-20T04:07:41;16.55;;;11.68;;
37905;SDS011;23739;51.448;6.674;2023-07-20T04:10:08;17.65;;;13.70;;
37905;SDS011;23739;51.448;6.674;2023-07-20T04:12:34;20.50;;;14.35;;
37905;SDS011;23739;51.448;6.674;2023-07-20T04:15:00;16.38;;;13.45;;
37905;SDS011;23739;51.448;6.674;2023-07-20T04:17:29;19.02;;;13.52;;
37905;SDS011;23739;51.448;6.674;2023-07-20T04:19:55;20.98;;;15.23;;
37905;SDS011;23739;51.448;6.674;2023-07-20T04:22:21;19.58;;;15.25;;
37905;SDS011;23739;51.448;6.674;2023-07-20T04:24:47;20.80;;;15.43;;
37905;SDS011;23739;51.448;6.674;2023-07-20T04:27:13;18.25;;;14.52;;
37905;SDS011;23739;51.448;6.674;2023-07-20T04:29:39;20.70;;;14.95;;
37905;SDS011;23739;51.448;6.674;2023-07-20T04:32:06;20.75;;;16.40;;
37905;SDS011;23739;51.448;6.674;2023-07-20T04:34:32;18.33;;;15.38;;
37905;SDS011;23739;51.448;6.674;2023-07-20T04:37:03;20.15;;;15.40;;
37905;SDS011;23739;51.448;6.674;2023-07-20T04:39:29;19.95;;;16.08;;
37905;SDS011;23739;51.448;6.674;2023-07-20T04:41:55;25.00;;;18.30;;
37905;SDS011;23739;51.448;6.674;2023-07-20T04:44:21;21.83;;;17.13;;
37905;SDS011;23739;51.448;6.674;2023-07-20T04:46:48;18.50;;;16.48;;
37905;SDS011;23739;51.448;6.674;2023-07-20T04:49:14;15.38;;;13.50;;
37905;SDS011;23739;51.448;6.674;2023-07-20T04:51:40;16.58;;;13.60;;
37905;SDS011;23739;51.448;6.674;2023-07-20T04:54:06;17.60;;;14.23;;
37905;SDS011;23739;51.448;6.674;2023-07-20T04:56:32;17.88;;;13.45;;
37905;SDS011;23739;51.448;6.674;2023-07-20T04:58:58;16.85;;;14.13;;
37905;SDS011;23739;51.448;6.674;2023-07-20T05:01:24;14.70;;;13.07;;
37905;SDS011;23739;51.448;6.674;2023-07-20T05:03:52;15.75;;;13.00;;
37905;SDS011;23739;51.448;6.674;2023-07-20T05:06:18;19.52;;;13.32;;
37905;SDS011;23739;51.448;6.674;2023-07-20T05:08:44;16.63;;;12.65;;
37905;SDS011;23739;51.448;6.674;2023-07-20T05:11:10;20.15;;;13.95;;
37905;SDS011;23739;51.448;6.674;2023-07-20T05:13:37;15.70;;;12.38;;
37905;SDS011;23739;51.448;6.674;2023-07-20T05:16:03;15.05;;;12.05;;
37905;SDS011;23739;51.448;6.674;2023-07-20T05:18:29;12.85;;;10.93;;
37905;SDS011;23739;51.448;6.674;2023-07-20T05:20:56;11.82;;;10.57;;
37905;SDS011;23739;51.448;6.674;2023-07-20T05:23:22;16.05;;;12.05;;
37905;SDS011;23739;51.448;6.674;2023-07-20T05:25:57;16.02;;;10.80;;
37905;SDS011;23739;51.448;6.674;2023-07-20T05:28:24;14.02;;;10.90;;
37905;SDS011;23739;51.448;6.674;2023-07-20T05:30:51;12.10;;;10.70;;
37905;SDS011;23739;51.448;6.674;2023-07-20T05:33:18;14.15;;;12.18;;
37905;SDS011;23739;51.448;6.674;2023-07-20T05:35:44;12.75;;;10.60;;
37905;SDS011;23739;51.448;6.674;2023-07-20T05:38:10;14.85;;;11.68;;
37905;SDS011;23739;51.448;6.674;2023-07-20T05:40:43;15.45;;;11.73;;
37905;SDS011;23739;51.448;6.674;2023-07-20T05:43:10;15.45;;;11.38;;
37905;SDS011;23739;51.448;6.674;2023-07-20T05:45:36;11.50;;;10.27;;
37905;SDS011;23739;51.448;6.674;2023-07-20T05:48:02;11.88;;;10.57;;
37905;SDS011;23739;51.448;6.674;2023-07-20T05:50:29;13.75;;;9.63;;
37905;SDS011;23739;51.448;6.674;2023-07-20T05:52:55;11.07;;;9.90;;
37905;SDS011;23739;51.448;6.674;2023-07-20T05:55:21;14.77;;;11.25;;
37905;SDS011;23739;51.448;6.674;2023-07-20T05:57:47;11.15;;;9.90;;
37905;SDS011;23739;51.448;6.674;2023-07-20T06:00:14;12.52;;;10.55;;
37905;SDS011;23739;51.448;6.674;2023-07-20T06:02:41;11.27;;;9.90;;
37905;SDS011;23739;51.448;6.674;2023-07-20T06:05:07;10.63;;;8.50;;
37905;SDS011;23739;51.448;6.674;2023-07-20T06:07:37;8.48;;;6.90;;
37905;SDS011;23739;51.448;6.674;2023-07-20T06:10:03;8.98;;;7.55;;
37905;SDS011;23739;51.448;6.674;2023-07-20T06:12:31;9.45;;;6.38;;
37905;SDS011;23739;51.448;6.674;2023-07-20T06:14:57;8.85;;;6.63;;
37905;SDS011;23739;51.448;6.674;2023-07-20T06:17:23;7.47;;;5.88;;
37905;SDS011;23739;51.448;6.674;2023-07-20T06:19:49;6.15;;;5.30;;
37905;SDS011;23739;51.448;6.674;2023-07-20T06:22:16;7.10;;;5.00;;
37905;SDS011;23739;51.448;6.674;2023-07-20T06:24:42;7.05;;;4.72;;
37905;SDS011;23739;51.448;6.674;2023-07-20T06:27:08;5.90;;;4.82;;
37905;SDS011;23739;51.448;6.674;2023-07-20T06:29:34;6.35;;;4.55;;
37905;SDS011;23739;51.448;6.674;2023-07-20T06:32:00;7.20;;;4.35;;
37905;SDS011;23739;51.448;6.674;2023-07-20T06:34:26;4.72;;;3.67;;
37905;SDS011;23739;51.448;6.674;2023-07-20T06:36:52;3.70;;;3.30;;
37905;SDS011;23739;51.448;6.674;2023-07-20T06:39:18;3.97;;;3.55;;
37905;SDS011;23739;51.448;6.674;2023-07-20T06:41:44;3.60;;;3.30;;
37905;SDS011;23739;51.448;6.674;2023-07-20T06:44:10;3.30;;;2.58;;
37905;SDS011;23739;51.448;6.674;2023-07-20T06:46:36;4.15;;;2.50;;
37905;SDS011;23739;51.448;6.674;2023-07-20T06:49:05;1.88;;;1.70;;
37905;SDS011;23739;51.448;6.674;2023-07-20T06:51:35;4.70;;;1.42;;
37905;SDS011;23739;51.448;6.674;2023-07-20T06:54:01;1.27;;;1.17;;
37905;SDS011;23739;51.448;6.674;2023-07-20T06:56:29;2.83;;;2.00;;
37905;SDS011;23739;51.448;6.674;2023-07-20T06:58:55;2.20;;;2.00;;
37905;SDS011;23739;51.448;6.674;2023-07-20T07:01:22;1.70;;;1.60;;
37905;SDS011;23739;51.448;6.674;2023-07-20T07:03:48;2.63;;;2.53;;
37905;SDS011;23739;51.448;6.674;2023-07-20T07:06:14;4.78;;;2.60;;
37905;SDS011;23739;51.448;6.674;2023-07-20T07:08:40;2.17;;;1.98;;
37905;SDS011;23739;51.448;6.674;2023-07-20T07:11:09;1.75;;;1.65;;
37905;SDS011;23739;51.448;6.674;2023-07-20T07:13:35;2.10;;;1.65;;
37905;SDS011;23739;51.448;6.674;2023-07-20T07:16:01;2.15;;;1.42;;
37905;SDS011;23739;51.448;6.674;2023-07-20T07:18:27;1.83;;;1.73;;
37905;SDS011;23739;51.448;6.674;2023-07-20T07:20:53;1.77;;;1.67;;
37905;SDS011;23739;51.448;6.674;2023-07-20T07:23:20;2.63;;;2.40;;
37905;SDS011;23739;51.448;6.674;2023-07-20T07:25:46;3.58;;;2.47;;
37905;SDS011;23739;51.448;6.674;2023-07-20T07:28:12;3.13;;;2.53;;
37905;SDS011;23739;51.448;6.674;2023-07-20T07:30:39;5.05;;;2.72;;
37905;SDS011;23739;51.448;6.674;2023-07-20T07:33:05;2.22;;;2.03;;
37905;SDS011;23739;51.448;6.674;2023-07-20T07:35:31;2.85;;;2.55;;
37905;SDS011;23739;51.448;6.674;2023-07-20T07:37:57;5.38;;;2.55;;
37905;SDS011;23739;51.448;6.674;2023-07-20T07:40:23;4.03;;;2.60;;
37905;SDS011;23739;51.448;6.674;2023-07-20T07:42:50;4.22;;;3.10;;
37905;SDS011;23739;51.448;6.674;2023-07-20T07:45:16;5.80;;;3.65;;
37905;SDS011;23739;51.448;6.674;2023-07-20T07:47:42;3.53;;;3.22;;
37905;SDS011;23739;51.448;6.674;2023-07-20T07:50:08;3.63;;;3.20;;
37905;SDS011;23739;51.448;6.674;2023-07-20T07:52:35;4.78;;;4.10;;
37905;SDS011;23739;51.448;6.674;2023-07-20T07:55:01;4.30;;;3.85;;
37905;SDS011;23739;51.448;6.674;2023-07-20T07:57:29;5.30;;;4.00;;
37905;SDS011;23739;51.448;6.674;2023-07-20T07:59:55;4.55;;;3.38;;
37905;SDS011;23739;51.448;6.674;2023-07-20T08:02:21;8.25;;;3.70;;
37905;SDS011;23739;51.448;6.674;2023-07-20T08:04:47;2.30;;;1.85;;
37905;SDS011;23739;51.448;6.674;2023-07-20T08:07:13;3.17;;;2.30;;
37905;SDS011;23739;51.448;6.674;2023-07-20T08:09:39;3.03;;;2.75;;
37905;SDS011;23739;51.448;6.674;2023-07-20T08:12:06;2.65;;;2.45;;
37905;SDS011;23739;51.448;6.674;2023-07-20T08:14:32;3.25;;;2.50;;
37905;SDS011;23739;51.448;6.674;2023-07-20T08:16:58;2.75;;;2.08;;
37905;SDS011;23739;51.448;6.674;2023-07-20T08:19:24;2.60;;;2.08;;
37905;SDS011;23739;51.448;6.674;2023-07-20T08:21:50;3.05;;;2.53;;
37905;SDS011;23739;51.448;6.674;2023-07-20T08:24:16;2.65;;;2.03;;
37905;SDS011;23739;51.448;6.674;2023-07-20T08:26:42;2.00;;;1.80;;
37905;SDS011;23739;51.448;6.674;2023-07-20T08:29:08;1.40;;;1.30;;
37905;SDS011;23739;51.448;6.674;2023-07-20T08:31:34;1.73;;;0.90;;
37905;SDS011;23739;51.448;6.674;2023-07-20T08:34:00;0.80;;;0.80;;
37905;SDS011;23739;51.448;6.674;2023-07-20T08:36:26;1.50;;;0.63;;
37905;SDS011;23739;51.448;6.674;2023-07-20T08:38:52;1.00;;;0.60;;
37905;SDS011;23739;51.448;6.674;2023-07-20T08:41:19;0.80;;;0.77;;
37905;SDS011;23739;51.448;6.674;2023-07-20T08:43:45;1.13;;;0.93;;
37905;SDS011;23739;51.448;6.674;2023-07-20T08:46:12;1.23;;;1.00;;
37905;SDS011;23739;51.448;6.674;2023-07-20T08:48:40;1.67;;;1.17;;
37905;SDS011;23739;51.448;6.674;2023-07-20T08:51:07;1.92;;;0.82;;
37905;SDS011;23739;51.448;6.674;2023-07-20T08:53:33;0.80;;;0.77;;
37905;SDS011;23739;51.448;6.674;2023-07-20T08:55:59;2.95;;;0.98;;
37905;SDS011;23739;51.448;6.674;2023-07-20T08:58:25;2.17;;;0.68;;
37905;SDS011;23739;51.448;6.674;2023-07-20T09:00:53;2.78;;;0.75;;
37905;SDS011;23739;51.448;6.674;2023-07-20T09:03:21;2.30;;;0.70;;
37905;SDS011;23739;51.448;6.674;2023-07-20T09:05:47;1.13;;;0.90;;
37905;SDS011;23739;51.448;6.674;2023-07-20T09:08:13;0.70;;;0.70;;
37905;SDS011;23739;51.448;6.674;2023-07-20T09:10:40;1.02;;;0.80;;
37905;SDS011;23739;51.448;6.674;2023-07-20T09:13:06;0.73;;;0.70;;
37905;SDS011;23739;51.448;6.674;2023-07-20T09:15:32;0.70;;;0.50;;
37905;SDS011;23739;51.448;6.674;2023-07-20T09:18:00;1.00;;;0.70;;
37905;SDS011;23739;51.448;6.674;2023-07-20T09:20:27;1.58;;;0.80;;
37905;SDS011;23739;51.448;6.674;2023-07-20T09:22:56;1.23;;;0.90;;
37905;SDS011;23739;51.448;6.674;2023-07-20T09:25:22;2.33;;;0.90;;
37905;SDS011;23739;51.448;6.674;2023-07-20T09:27:48;0.63;;;0.60;;
37905;SDS011;23739;51.448;6.674;2023-07-20T09:30:15;1.17;;;0.70;;
37905;SDS011;23739;51.448;6.674;2023-07-20T09:32:42;1.35;;;0.70;;
37905;SDS011;23739;51.448;6.674;2023-07-20T09:35:12;0.70;;;0.70;;
37905;SDS011;23739;51.448;6.674;2023-07-20T09:37:39;2.30;;;0.70;;
37905;SDS011;23739;51.448;6.674;2023-07-20T09:40:07;1.05;;;0.70;;
37905;SDS011;23739;51.448;6.674;2023-07-20T09:42:35;1.55;;;0.80;;
37905;SDS011;23739;51.448;6.674;2023-07-20T09:45:01;1.35;;;0.98;;
37905;SDS011;23739;51.448;6.674;2023-07-20T09:47:28;2.33;;;1.13;;
37905;SDS011;23739;51.448;6.674;2023-07-20T09:49:58;1.95;;;0.75;;
37905;SDS011;23739;51.448;6.674;2023-07-20T09:52:28;1.27;;;0.80;;
37905;SDS011;23739;51.448;6.674;2023-07-20T09:54:55;2.55;;;0.68;;
37905;SDS011;23739;51.448;6.674;2023-07-20T09:57:21;1.00;;;0.70;;
37905;SDS011;23739;51.448;6.674;2023-07-20T09:59:47;0.57;;;0.50;;
37905;SDS011;23739;51.448;6.674;2023-07-20T10:02:20;0.98;;;0.60;;
37905;SDS011;23739;51.448;6.674;2023-07-20T10:04:46;0.75;;;0.50;;
37905;SDS011;23739;51.448;6.674;2023-07-20T10:07:13;1.90;;;0.98;;
37905;SDS011;23739;51.448;6.674;2023-07-20T10:09:40;2.55;;;0.68;;
37905;SDS011;23739;51.448;6.674;2023-07-20T10:12:07;1.08;;;0.93;;
37905;SDS011;23739;51.448;6.674;2023-07-20T10:14:36;0.90;;;0.57;;
37905;SDS011;23739;51.448;6.674;2023-07-20T10:17:04;5.93;;;1.23;;
37905;SDS011;23739;51.448;6.674;2023-07-20T10:19:39;0.50;;;0.50;;
37905;SDS011;23739;51.448;6.674;2023-07-20T10:22:14;0.75;;;0.52;;
37905;SDS011;23739;51.448;6.674;2023-07-20T10:24:44;0.98;;;0.90;;
37905;SDS011;23739;51.448;6.674;2023-07-20T10:27:10;0.80;;;0.60;;
37905;SDS011;23739;51.448;6.674;2023-07-20T10:29:37;1.25;;;0.60;;
37905;SDS011;23739;51.448;6.674;2023-07-20T10:32:03;0.85;;;0.55;;
37905;SDS011;23739;51.448;6.674;2023-07-20T10:34:30;1.35;;;0.50;;
37905;SDS011;23739;51.448;6.674;2023-07-20T10:36:57;1.92;;;0.50;;
37905;SDS011;23739;51.448;6.674;2023-07-20T10:42:09;2.95;;;0.68;;
37905;SDS011;23739;51.448;6.674;2023-07-20T10:44:41;0.30;;;0.30;;
37905;SDS011;23739;51.448;6.674;2023-07-20T10:47:10;0.40;;;0.40;;
37905;SDS011;23739;51.448;6.674;2023-07-20T10:49:57;1.33;;;0.73;;
37905;SDS011;23739;51.448;6.674;2023-07-20T10:52:23;0.43;;;0.38;;
37905;SDS011;23739;51.448;6.674;2023-07-20T10:54:49;0.50;;;0.50;;
37905;SDS011;23739;51.448;6.674;2023-07-20T10:57:22;0.73;;;0.60;;
37905;SDS011;23739;51.448;6.674;2023-07-20T10:59:48;0.40;;;0.40;;
37905;SDS011;23739;51.448;6.674;2023-07-20T11:02:17;0.75;;;0.55;;
37905;SDS011;23739;51.448;6.674;2023-07-20T11:04:47;0.60;;;0.50;;
37905;SDS011;23739;51.448;6.674;2023-07-20T11:07:17;1.67;;;0.60;;
37905;SDS011;23739;51.448;6.674;2023-07-20T11:09:43;0.80;;;0.60;;
37905;SDS011;23739;51.448;6.674;2023-07-20T11:12:13;0.55;;;0.55;;
37905;SDS011;23739;51.448;6.674;2023-07-20T11:14:42;1.73;;;0.55;;
37905;SDS011;23739;51.448;6.674;2023-07-20T11:17:15;0.88;;;0.73;;
37905;SDS011;23739;51.448;6.674;2023-07-20T11:19:47;0.73;;;0.50;;
37905;SDS011;23739;51.448;6.674;2023-07-20T11:22:13;0.43;;;0.43;;
37905;SDS011;23739;51.448;6.674;2023-07-20T11:24:41;7.75;;;1.17;;
37905;SDS011;23739;51.448;6.674;2023-07-20T11:27:08;1.52;;;0.73;;
37905;SDS011;23739;51.448;6.674;2023-07-20T11:29:34;0.73;;;0.50;;
37905;SDS011;23739;51.448;6.674;2023-07-20T11:32:02;1.10;;;0.63;;
37905;SDS011;23739;51.448;6.674;2023-07-20T11:34:29;1.40;;;0.80;;
37905;SDS011;23739;51.448;6.674;2023-07-20T11:36:56;1.25;;;0.70;;
37905;SDS011;23739;51.448;6.674;2023-07-20T11:39:22;0.82;;;0.57;;
37905;SDS011;23739;51.448;6.674;2023-07-20T11:41:54;1.10;;;0.50;;
37905;SDS011;23739;51.448;6.674;2023-07-20T11:44:21;0.50;;;0.50;;
37905;SDS011;23739;51.448;6.674;2023-07-20T11:47:14;1.15;;;0.60;;
37905;SDS011;23739;51.448;6.674;2023-07-20T11:49:41;2.10;;;0.50;;
37905;SDS011;23739;51.448;6.674;2023-07-20T11:52:08;0.40;;;0.40;;
37905;SDS011;23739;51.448;6.674;2023-07-20T11:54:35;1.92;;;0.60;;
37905;SDS011;23739;51.448;6.674;2023-07-20T11:57:03;0.45;;;0.38;;
37905;SDS011;23739;51.448;6.674;2023-07-20T11:59:30;2.10;;;0.50;;
37905;SDS011;23739;51.448;6.674;2023-07-20T12:01:56;0.50;;;0.50;;
37905;SDS011;23739;51.448;6.674;2023-07-20T12:04:23;1.88;;;0.60;;
37905;SDS011;23739;51.448;6.674;2023-07-20T12:06:49;2.03;;;0.60;;
37905;SDS011;23739;51.448;6.674;2023-07-20T12:09:16;0.88;;;0.60;;
37905;SDS011;23739;51.448;6.674;2023-07-20T12:11:43;1.88;;;0.65;;
37905;SDS011;23739;51.448;6.674;2023-07-20T12:14:10;0.93;;;0.60;;
37905;SDS011;23739;51.448;6.674;2023-07-20T12:16:37;1.00;;;0.57;;
37905;SDS011;23739;51.448;6.674;2023-07-20T12:19:04;1.75;;;0.95;;
37905;SDS011;23739;51.448;6.674;2023-07-20T12:21:31;2.35;;;0.80;;
37905;SDS011;23739;51.448;6.674;2023-07-20T12:23:58;2.03;;;0.82;;
37905;SDS011;23739;51.448;6.674;2023-07-20T12:26:25;4.20;;;0.60;;
37905;SDS011;23739;51.448;6.674;2023-07-20T12:28:52;0.82;;;0.70;;
37905;SDS011;23739;51.448;6.674;2023-07-20T12:31:18;0.60;;;0.60;;
37905;SDS011;23739;51.448;6.674;2023-07-20T12:33:44;0.98;;;0.77;;
37905;SDS011;23739;51.448;6.674;2023-07-20T12:36:10;1.85;;;0.60;;
37905;SDS011;23739;51.448;6.674;2023-07-20T12:38:36;0.68;;;0.50;;
37905;SDS011;23739;51.448;6.674;2023-07-20T12:41:03;0.73;;;0.50;;
37905;SDS011;23739;51.448;6.674;2023-07-20T12:43:29;1.23;;;0.65;;
37905;SDS011;23739;51.448;6.674;2023-07-20T12:45:57;0.95;;;0.70;;
37905;SDS011;23739;51.448;6.674;2023-07-20T12:48:23;1.50;;;0.80;;
37905;SDS011;23739;51.448;6.674;2023-07-20T12:50:49;1.35;;;0.73;;
37905;SDS011;23739;51.448;6.674;2023-07-20T12:53:15;0.93;;;0.52;;
37905;SDS011;23739;51.448;6.674;2023-07-20T12:55:42;0.70;;;0.57;;
37905;SDS011;23739;51.448;6.674;2023-07-20T12:58:08;2.05;;;0.77;;
37905;SDS011;23739;51.448;6.674;2023-07-20T13:00:34;1.42;;;0.90;;
37905;SDS011;23739;51.448;6.674;2023-07-20T13:03:01;1.67;;;1.17;;
37905;SDS011;23739;51.448;6.674;2023-07-20T13:05:32;0.70;;;0.70;;
37905;SDS011;23739;51.448;6.674;2023-07-20T13:07:58;1.20;;;0.60;;
37905;SDS011;23739;51.448;6.674;2023-07-20T13:10:24;0.60;;;0.60;;
37905;SDS011;23739;51.448;6.674;2023-07-20T13:12:50;3.70;;;0.70;;
37905;SDS011;23739;51.448;6.674;2023-07-20T13:15:17;1.98;;;0.60;;
37905;SDS011;23739;51.448;6.674;2023-07-20T13:17:44;0.60;;;0.50;;
37905;SDS011;23739;51.448;6.674;2023-07-20T13:20:11;0.93;;;0.52;;
37905;SDS011;23739;51.448;6.674;2023-07-20T13:22:40;1.35;;;0.60;;
37905;SDS011;23739;51.448;6.674;2023-07-20T13:25:07;0.43;;;0.43;;
37905;SDS011;23739;51.448;6.674;2023-07-20T13:27:34;0.60;;;0.45;;
37905;SDS011;23739;51.448;6.674;2023-07-20T13:30:00;0.52;;;0.50;;
37905;SDS011;23739;51.448;6.674;2023-07-20T13:32:26;1.27;;;0.40;;
37905;SDS011;23739;51.448;6.674;2023-07-20T13:34:53;1.17;;;0.52;;
37905;SDS011;23739;51.448;6.674;2023-07-20T13:37:19;1.67;;;0.65;;
37905;SDS011;23739;51.448;6.674;2023-07-20T13:39:45;2.80;;;1.35;;
37905;SDS011;23739;51.448;6.674;2023-07-20T13:42:11;1.65;;;0.52;;
37905;SDS011;23739;51.448;6.674;2023-07-20T13:44:38;2.40;;;0.70;;
37905;SDS011;23739;51.448;6.674;2023-07-20T13:47:04;1.55;;;0.93;;
37905;SDS011;23739;51.448;6.674;2023-07-20T13:49:33;0.52;;;0.52;;
37905;SDS011;23739;51.448;6.674;2023-07-20T13:51:59;1.95;;;0.50;;
37905;SDS011;23739;51.448;6.674;2023-07-20T13:54:25;1.15;;;0.60;;
37905;SDS011;23739;51.448;6.674;2023-07-20T13:56:51;1.33;;;0.60;;
37905;SDS011;23739;51.448;6.674;2023-07-20T13:59:18;0.60;;;0.60;;
37905;SDS011;23739;51.448;6.674;2023-07-20T14:01:44;1.95;;;0.80;;
37905;SDS011;23739;51.448;6.674;2023-07-20T14:04:11;0.50;;;0.50;;
37905;SDS011;23739;51.448;6.674;2023-07-20T14:06:37;0.65;;;0.55;;
37905;SDS011;23739;51.448;6.674;2023-07-20T14:09:04;1.45;;;0.82;;
37905;SDS011;23739;51.448;6.674;2023-07-20T14:11:30;1.83;;;0.50;;
37905;SDS011;23739;51.448;6.674;2023-07-20T14:13:59;1.65;;;0.68;;
37905;SDS011;23739;51.448;6.674;2023-07-20T14:16:25;0.60;;;0.60;;
37905;SDS011;23739;51.448;6.674;2023-07-20T14:18:51;1.13;;;0.60;;
37905;SDS011;23739;51.448;6.674;2023-07-20T14:21:18;2.08;;;0.52;;
37905;SDS011;23739;51.448;6.674;2023-07-20T14:23:45;1.27;;;0.60;;
37905;SDS011;23739;51.448;6.674;2023-07-20T14:26:12;0.90;;;0.60;;
37905;SDS011;23739;51.448;6.674;2023-07-20T14:28:38;0.60;;;0.57;;
37905;SDS011;23739;51.448;6.674;2023-07-20T14:31:05;0.75;;;0.70;;
37905;SDS011;23739;51.448;6.674;2023-07-20T14:33:32;0.60;;;0.60;;
37905;SDS011;23739;51.448;6.674;2023-07-20T14:35:58;0.88;;;0.43;;
37905;SDS011;23739;51.448;6.674;2023-07-20T14:38:26;2.60;;;0.60;;
37905;SDS011;23739;51.448;6.674;2023-07-20T14:40:53;1.15;;;0.50;;
37905;SDS011;23739;51.448;6.674;2023-07-20T14:43:20;3.17;;;0.80;;
37905;SDS011;23739;51.448;6.674;2023-07-20T14:45:46;2.05;;;0.70;;
37905;SDS011;23739;51.448;6.674;2023-07-20T14:48:12;1.95;;;0.70;;
37905;SDS011;23739;51.448;6.674;2023-07-20T14:50:40;1.73;;;0.50;;